Time;durP1;ratioP1;P1;durP2;ratioP2;P2;SDS_P1;SDS_P2;PMS_P1;PMS_P2;Temp;Humidity;BMP_temperature;BMP_pressure;BME280_temperature;BME280_humidity;BME280_pressure;Samples;Min_cycle;Max_cycle;Signal;HPM_P1;HPM_P2
2023/10/02 00:01:47;;;;;;;0.10;0.10;;;;;;;16.61;67.16;101128.25;7368255;19;20011;-61
2023/10/02 00:04:18;;;;;;;0.10;0.10;;;;;;;16.71;67.26;101139.34;7368790;19;20048;-60
2023/10/02 00:06:47;;;;;;;0.10;0.10;;;;;;;16.72;66.24;101151.59;7361977;19;20097;-61
2023/10/02 00:09:14;;;;;;;0.00;0.00;;;;;;;16.71;66.61;101154.25;7367116;19;20384;-60
2023/10/02 00:11:39;;;;;;;0.10;0.10;;;;;;;16.55;66.64;101132.94;7362108;19;20031;-61
2023/10/02 00:14:18;;;;;;;0.10;0.10;;;;;;;16.65;67.34;101147.47;7366954;19;20023;-59
2023/10/02 00:16:58;;;;;;;0.00;0.00;;;;;;;16.57;67.68;101144.28;7354793;19;20014;-60
2023/10/02 00:19:35;;;;;;;0.10;0.10;;;;;;;16.63;66.84;101154.59;7350348;19;20006;-60
2023/10/02 00:22:09;;;;;;;0.10;0.10;;;;;;;16.60;67.06;101152.94;7347461;19;20018;-60
2023/10/02 00:24:37;;;;;;;0.10;0.10;;;;;;;16.58;65.40;101153.91;7364759;19;19998;-59
2023/10/02 00:27:07;;;;;;;0.00;0.00;;;;;;;16.55;64.05;101159.31;7367112;19;20014;-61
2023/10/02 00:29:33;;;;;;;0.10;0.10;;;;;;;16.38;66.37;101132.78;7373241;19;20088;-60
2023/10/02 00:31:59;;;;;;;0.10;0.10;;;;;;;16.49;66.44;101159.56;7360277;19;20021;-61
2023/10/02 00:34:33;;;;;;;0.10;0.10;;;;;;;16.46;67.17;101155.25;7367109;19;20109;-60
2023/10/02 00:37:15;;;;;;;0.10;0.10;;;;;;;16.45;66.39;101153.53;7362084;19;20807;-60
2023/10/02 00:39:41;;;;;;;0.10;0.10;;;;;;;16.40;67.49;101160.78;7355737;19;20007;-60
2023/10/02 00:42:28;;;;;;;0.10;0.10;;;;;;;16.38;67.54;101156.50;7360201;19;20493;-60
2023/10/02 00:44:55;;;;;;;0.10;0.10;;;;;;;16.33;67.15;101154.03;7366244;19;20011;-60
2023/10/02 00:47:50;;;;;;;0.10;0.10;;;;;;;16.35;66.50;101163.59;7358791;19;20018;-60
2023/10/02 00:50:20;;;;;;;0.10;0.10;;;;;;;16.30;65.70;101157.63;7362301;19;20014;-60
2023/10/02 00:53:04;;;;;;;0.10;0.10;;;;;;;16.28;65.58;101146.31;7359925;19;20850;-60
2023/10/02 00:55:34;;;;;;;0.15;0.15;;;;;;;16.24;65.91;101157.88;7361154;19;20011;-60
2023/10/02 00:58:04;;;;;;;0.10;0.10;;;;;;;16.21;66.46;101155.34;7363516;19;20019;-60
2023/10/02 01:00:37;;;;;;;0.10;0.10;;;;;;;16.19;66.31;101156.34;7361844;19;20017;-61
2023/10/02 01:03:14;;;;;;;0.10;0.10;;;;;;;16.17;66.44;101153.78;7357430;19;20765;-61
2023/10/02 01:05:47;;;;;;;0.10;0.10;;;;;;;16.12;67.77;101153.09;7363784;19;20022;-60
2023/10/02 01:08:42;;;;;;;0.10;0.10;;;;;;;15.97;66.68;101127.34;7360555;19;20009;-61
2023/10/02 01:11:13;;;;;;;0.10;0.10;;;;;;;16.11;66.47;101151.34;7359023;19;20775;-60
2023/10/02 01:13:39;;;;;;;0.00;0.00;;;;;;;16.08;65.90;101148.88;7335597;19;20591;-61
2023/10/02 01:16:09;;;;;;;0.00;0.00;;;;;;;16.06;65.99;101156.81;7368137;19;20026;-60
2023/10/02 01:18:35;;;;;;;0.03;0.03;;;;;;;16.02;65.95;101154.38;7364561;19;20501;-60
2023/10/02 01:21:09;;;;;;;0.00;0.00;;;;;;;16.02;66.84;101149.09;7365358;19;20018;-60
2023/10/02 01:26:34;;;;;;;0.10;0.10;;;;;;;15.94;67.06;101141.47;7358429;19;20347;-60
2023/10/02 01:29:01;;;;;;;0.10;0.10;;;;;;;15.95;65.68;101152.88;7363058;19;20103;-60
2023/10/02 01:31:35;;;;;;;0.10;0.10;;;;;;;15.93;65.89;101147.66;7360302;19;20736;-60
2023/10/02 01:34:02;;;;;;;0.08;0.08;;;;;;;15.91;66.18;101132.81;7362796;19;20569;-61
2023/10/02 01:36:31;;;;;;;0.00;0.00;;;;;;;15.88;66.02;101135.59;7362735;19;20027;-61
2023/10/02 01:38:59;;;;;;;0.10;0.10;;;;;;;15.76;66.46;101121.97;7353907;19;20420;-60
2023/10/02 01:41:26;;;;;;;0.10;0.10;;;;;;;15.76;65.88;101127.25;7363615;19;20097;-61
2023/10/02 01:43:55;;;;;;;0.00;0.00;;;;;;;15.78;65.94;101128.03;7355680;19;20362;-60
2023/10/02 01:46:22;;;;;;;0.10;0.10;;;;;;;15.80;65.82;101130.59;7368950;19;20018;-61
2023/10/02 01:48:50;;;;;;;0.10;0.10;;;;;;;15.78;66.37;101133.28;7361610;19;20017;-60
2023/10/02 01:51:25;;;;;;;0.10;0.10;;;;;;;15.76;66.24;101129.88;7364442;19;20386;-60
2023/10/02 01:53:57;;;;;;;0.10;0.10;;;;;;;15.74;66.30;101126.41;7357214;19;20011;-61
2023/10/02 01:56:29;;;;;;;0.10;0.10;;;;;;;15.65;66.14;101113.59;7362546;19;20018;-60
2023/10/02 01:59:08;;;;;;;0.10;0.10;;;;;;;15.71;66.67;101123.91;7355586;19;20025;-59
2023/10/02 02:01:46;;;;;;;0.10;0.10;;;;;;;15.58;67.12;101102.41;7365261;19;20018;-60
2023/10/02 02:04:14;;;;;;;0.10;0.10;;;;;;;15.68;67.08;101121.38;7363738;19;20809;-59
2023/10/02 02:06:51;;;;;;;;;;;;;;;15.70;66.03;101132.72;7359461;19;20049;-61
2023/10/02 02:09:25;;;;;;;0.10;0.10;;;;;;;15.67;67.16;101127.56;7366662;19;19927;-60
2023/10/02 02:12:07;;;;;;;0.10;0.10;;;;;;;15.67;67.40;101122.31;7362776;19;20095;-60
2023/10/02 02:14:32;;;;;;;0.10;0.10;;;;;;;15.64;67.60;101129.44;7364735;19;20006;-60
2023/10/02 02:16:59;;;;;;;0.10;0.10;;;;;;;15.60;65.39;101126.03;7366326;19;20014;-60
2023/10/02 02:19:24;;;;;;;0.10;0.10;;;;;;;15.46;65.96;101097.59;7359688;19;20034;-60
2023/10/02 02:21:56;;;;;;;0.10;0.10;;;;;;;15.52;67.00;101112.31;7363070;19;20749;-60
2023/10/02 02:24:22;;;;;;;0.10;0.10;;;;;;;15.52;66.64;101112.31;7364727;19;20002;-61
2023/10/02 02:26:57;;;;;;;0.10;0.10;;;;;;;15.47;66.31;101109.00;7364813;19;20098;-60
2023/10/02 02:29:26;;;;;;;0.10;0.10;;;;;;;15.48;66.32;101122.09;7364905;19;20010;-60
2023/10/02 02:31:53;;;;;;;0.10;0.10;;;;;;;15.47;66.63;101130.03;7357139;19;20014;-60
2023/10/02 02:34:20;;;;;;;0.00;0.00;;;;;;;15.45;67.11;101116.91;7365700;19;20472;-60
2023/10/02 02:36:49;;;;;;;0.00;0.00;;;;;;;15.31;66.76;101104.28;7365812;19;20089;-61
2023/10/02 02:39:17;;;;;;;0.00;0.00;;;;;;;15.40;66.45;101107.47;7364264;19;20463;-60
2023/10/02 02:42:08;;;;;;;0.00;0.00;;;;;;;15.40;67.30;101115.38;7369144;19;20034;-60
2023/10/02 02:44:43;;;;;;;0.10;0.10;;;;;;;15.31;66.68;101109.53;7367992;19;20006;-60
2023/10/02 02:47:10;;;;;;;0.10;0.10;;;;;;;15.31;66.45;101108.69;7366068;19;20712;-61
2023/10/02 02:49:58;;;;;;;0.10;0.10;;;;;;;15.28;65.72;101104.38;7368572;19;20003;-60
2023/10/02 02:52:32;;;;;;;0.10;0.10;;;;;;;15.23;66.79;101094.94;7370688;19;20010;-60
2023/10/02 02:54:59;;;;;;;0.10;0.10;;;;;;;15.21;66.76;101102.91;7379216;19;20017;-60
2023/10/02 02:57:31;;;;;;;0.00;0.00;;;;;;;15.19;66.67;101107.31;7375796;19;20526;-60
2023/10/02 03:02:47;;;;;;;0.08;0.08;;;;;;;15.11;65.98;101114.66;7377719;19;20022;-60
2023/10/02 03:05:14;;;;;;;0.10;0.10;;;;;;;14.91;67.06;101093.44;7371558;19;20029;-61
2023/10/02 03:07:41;;;;;;;0.10;0.10;;;;;;;15.05;67.19;101123.63;7369385;19;20558;-60
2023/10/02 03:10:10;;;;;;;;;;;;;;;15.05;65.92;101106.94;7371085;19;20035;-60
2023/10/02 03:12:44;;;;;;;0.00;0.00;;;;;;;15.00;66.44;101098.34;7368853;19;19911;-60
2023/10/02 03:15:12;;;;;;;0.10;0.10;;;;;;;14.99;66.24;101109.78;7364425;19;20010;-60
2023/10/02 03:17:43;;;;;;;0.10;0.10;;;;;;;14.94;66.10;101098.56;7356631;19;20018;-61
2023/10/02 03:20:22;;;;;;;0.03;0.03;;;;;;;14.93;67.10;101123.16;7354949;19;20002;-60
2023/10/02 03:22:53;;;;;;;0.10;0.10;;;;;;;14.92;66.65;101121.44;7352642;19;20007;-61
2023/10/02 03:25:40;;;;;;;0.10;0.10;;;;;;;14.89;67.06;101103.13;7375259;19;20569;-60
2023/10/02 03:28:16;;;;;;;;;;;;;;;14.89;65.81;101096.09;7374041;19;20459;-61
2023/10/02 03:30:46;;;;;;;0.10;0.10;;;;;;;14.87;67.55;101100.56;7366792;19;19927;-61
2023/10/02 03:33:20;;;;;;;0.10;0.10;;;;;;;14.86;67.96;101106.75;7369131;19;20014;-61
2023/10/02 03:38:33;;;;;;;0.10;0.10;;;;;;;14.84;67.04;101099.81;7370063;19;20031;-60
2023/10/02 03:41:01;;;;;;;0.10;0.10;;;;;;;14.75;67.88;101093.97;7364643;19;20017;-60
2023/10/02 03:43:43;;;;;;;0.10;0.10;;;;;;;14.82;68.45;101109.53;7368773;19;20014;-60
2023/10/02 03:46:35;;;;;;;0.08;0.08;;;;;;;14.66;68.06;101083.75;7370023;19;20043;-61
2023/10/02 03:49:04;;;;;;;0.10;0.10;;;;;;;14.80;67.67;101091.19;7370977;19;20111;-60
2023/10/02 03:51:36;;;;;;;0.10;0.10;;;;;;;14.78;68.01;101104.34;7369706;19;20010;-60
2023/10/02 03:54:17;;;;;;;0.10;0.10;;;;;;;14.72;67.50;101087.94;7361417;19;20011;-59
2023/10/02 03:56:54;;;;;;;0.10;0.10;;;;;;;14.79;67.51;101098.19;7367678;19;20036;-59
2023/10/02 03:59:22;;;;;;;0.05;0.05;;;;;;;14.69;67.79;101099.41;7374150;19;20502;-60
2023/10/02 04:01:50;;;;;;;0.00;0.00;;;;;;;14.75;67.09;101104.47;7362441;19;20007;-59
2023/10/02 04:06:42;;;;;;;0.08;0.08;;;;;;;14.71;66.57;101110.75;7366118;19;20497;-60
2023/10/02 04:09:17;;;;;;;0.10;0.10;;;;;;;14.73;67.40;101097.53;7366009;19;20010;-60
2023/10/02 04:11:45;;;;;;;0.10;0.10;;;;;;;14.72;67.23;101101.09;7368296;19;20027;-61
2023/10/02 04:14:17;;;;;;;0.10;0.10;;;;;;;14.69;67.46;101088.88;7363319;19;20010;-60
2023/10/02 04:17:00;;;;;;;0.10;0.10;;;;;;;14.70;67.43;101090.63;7367389;19;20081;-60
2023/10/02 04:19:25;;;;;;;0.10;0.10;;;;;;;14.49;66.99;101070.28;7366591;19;20712;-60
2023/10/02 04:21:57;;;;;;;0.10;0.10;;;;;;;14.65;66.83;101082.03;7370440;19;20021;-60
2023/10/02 04:24:23;;;;;;;0.10;0.10;;;;;;;14.56;66.93;101074.47;7369505;19;20018;-61
2023/10/02 04:26:54;;;;;;;0.10;0.10;;;;;;;14.55;67.53;101080.63;7369728;19;20014;-60
2023/10/02 04:29:26;;;;;;;0.10;0.10;;;;;;;14.52;67.17;101089.47;7368193;19;20043;-61
2023/10/02 04:34:50;;;;;;;0.10;0.10;;;;;;;14.52;67.85;101073.69;7364549;19;20010;-59
2023/10/02 04:37:19;;;;;;;0.13;0.13;;;;;;;14.52;68.24;101080.72;7370035;19;20491;-60
2023/10/02 04:39:54;;;;;;;0.10;0.10;;;;;;;14.50;67.80;101072.03;7354875;19;20038;-61
2023/10/02 04:42:21;;;;;;;0.10;0.10;;;;;;;14.46;67.52;101071.22;7371036;19;20007;-60
2023/10/02 04:44:56;;;;;;;0.00;0.00;;;;;;;14.45;67.33;101074.78;7368968;19;20021;-61
2023/10/02 04:47:23;;;;;;;0.10;0.10;;;;;;;14.35;67.87;101056.75;7362602;19;20015;-60
2023/10/02 04:52:57;;;;;;;0.10;0.10;;;;;;;14.40;67.45;101066.19;7367931;19;20074;-60
2023/10/02 04:55:28;;;;;;;0.10;0.10;;;;;;;14.38;67.32;101064.50;7365087;19;20018;-61
2023/10/02 04:58:09;;;;;;;0.10;0.10;;;;;;;14.36;67.01;101071.59;7360371;19;19999;-61
2023/10/02 05:00:38;;;;;;;0.10;0.10;;;;;;;14.32;67.68;101062.09;7363945;19;20018;-60
2023/10/02 05:03:25;;;;;;;0.10;0.10;;;;;;;14.30;67.68;101064.78;7362964;19;20014;-60
2023/10/02 05:05:58;;;;;;;0.10;0.10;;;;;;;14.30;67.60;101063.91;7363373;19;20013;-60
2023/10/02 05:08:41;;;;;;;0.10;0.10;;;;;;;14.28;67.20;101049.03;7359499;19;20042;-60
2023/10/02 05:11:23;;;;;;;0.10;0.10;;;;;;;14.26;67.23;101052.63;7364623;19;20010;-61
2023/10/02 05:16:29;;;;;;;0.10;0.10;;;;;;;14.22;67.17;101056.25;7362199;19;20011;-60
2023/10/02 05:18:55;;;;;;;0.10;0.10;;;;;;;14.22;67.38;101061.50;7362929;19;20034;-60
2023/10/02 05:21:35;;;;;;;0.10;0.10;;;;;;;14.20;66.89;101063.34;7362649;19;20002;-60
2023/10/02 05:24:04;;;;;;;0.10;0.10;;;;;;;14.11;67.08;101046.09;7366673;19;20343;-61
2023/10/02 05:26:34;;;;;;;0.10;0.10;;;;;;;14.17;67.40;101056.41;7369906;19;20077;-60
2023/10/02 05:29:00;;;;;;;0.08;0.08;;;;;;;14.13;66.91;101046.91;7376851;19;20474;-60
2023/10/02 05:31:27;;;;;;;0.10;0.10;;;;;;;14.08;66.65;101048.81;7366104;19;20021;-60
2023/10/02 05:33:52;;;;;;;0.10;0.10;;;;;;;14.12;67.05;101055.69;7361019;19;20014;-60
2023/10/02 05:36:21;;;;;;;0.00;0.00;;;;;;;13.93;67.36;101023.03;7365120;19;20007;-60
2023/10/02 05:39:16;;;;;;;0.10;0.10;;;;;;;14.09;67.71;101065.44;7362990;19;20015;-60
2023/10/02 05:41:44;;;;;;;0.10;0.10;;;;;;;14.08;67.57;101069.81;7362050;19;20758;-60
2023/10/02 05:44:25;;;;;;;0.10;0.10;;;;;;;14.07;67.27;101077.75;7373135;19;20011;-60
2023/10/02 05:47:04;;;;;;;0.10;0.10;;;;;;;13.97;66.86;101061.44;7372493;19;20011;-61
2023/10/02 05:49:31;;;;;;;0.10;0.10;;;;;;;14.03;66.74;101071.72;7364505;19;20035;-60
2023/10/02 05:51:56;;;;;;;0.10;0.10;;;;;;;13.98;67.28;101063.13;7365348;19;20011;-60
2023/10/02 05:54:26;;;;;;;0.10;0.10;;;;;;;14.01;66.87;101068.31;7363080;19;20031;-60
2023/10/02 05:57:08;;;;;;;0.10;0.10;;;;;;;13.95;66.59;101063.25;7360589;19;20098;-61
2023/10/02 05:59:45;;;;;;;0.10;0.10;;;;;;;13.98;67.40;101064.00;7354945;19;20006;-61
2023/10/02 06:02:19;;;;;;;0.00;0.00;;;;;;;13.98;67.30;101073.63;7363462;19;20014;-61
2023/10/02 06:04:49;;;;;;;0.00;0.00;;;;;;;13.95;67.30;101085.13;7371001;19;20010;-60
2023/10/02 06:07:19;;;;;;;0.10;0.10;;;;;;;13.96;67.69;101078.09;7375323;19;20873;-60
2023/10/02 06:09:47;;;;;;;0.10;0.10;;;;;;;13.96;67.73;101070.22;7363185;19;20072;-61
2023/10/02 06:12:14;;;;;;;0.10;0.10;;;;;;;13.95;67.67;101068.50;7361218;19;20070;-60
2023/10/02 06:14:42;;;;;;;0.00;0.00;;;;;;;13.89;67.81;101052.91;7364166;19;20830;-60
2023/10/02 06:17:11;;;;;;;0.13;0.13;;;;;;;13.96;68.13;101075.47;7364748;19;20659;-60
2023/10/02 06:19:44;;;;;;;0.08;0.08;;;;;;;13.97;67.57;101077.19;7357815;19;20791;-59
2023/10/02 06:22:13;;;;;;;0.10;0.10;;;;;;;13.95;67.43;101071.13;7364231;19;20011;-60
2023/10/02 06:24:45;;;;;;;0.10;0.10;;;;;;;14.01;67.60;101070.94;7364038;19;20014;-60
2023/10/02 06:27:14;;;;;;;0.10;0.10;;;;;;;14.00;67.70;101077.09;7370235;19;20070;-60
2023/10/02 06:29:44;;;;;;;0.10;0.10;;;;;;;14.01;67.44;101086.69;7373897;19;20347;-59
2023/10/02 06:32:14;;;;;;;0.10;0.10;;;;;;;14.00;67.80;101083.22;7362300;19;20827;-60
2023/10/02 06:34:43;;;;;;;0.10;0.10;;;;;;;14.00;68.28;101077.97;7365261;19;20002;-60
2023/10/02 06:37:35;;;;;;;0.10;0.10;;;;;;;14.06;67.32;101076.91;7363805;19;20021;-60
2023/10/02 06:40:07;;;;;;;0.10;0.10;;;;;;;13.99;67.88;101060.50;7366618;19;20010;-61
2023/10/02 06:42:33;;;;;;;0.10;0.10;;;;;;;14.06;68.38;101066.41;7360999;19;20018;-59
2023/10/02 06:45:01;;;;;;;0.10;0.10;;;;;;;14.04;68.41;101073.47;7366359;19;20542;-60
2023/10/02 06:47:29;;;;;;;0.10;0.10;;;;;;;14.05;67.92;101071.72;7361803;19;20010;-61
2023/10/02 06:50:02;;;;;;;0.10;0.10;;;;;;;14.09;68.42;101078.56;7358701;19;20015;-60
2023/10/02 06:52:29;;;;;;;0.10;0.10;;;;;;;14.08;68.43;101075.06;7361929;19;20747;-60
2023/10/02 06:54:56;;;;;;;0.10;0.10;;;;;;;14.08;68.20;101069.81;7362482;19;20014;-60
2023/10/02 06:57:24;;;;;;;0.10;0.10;;;;;;;14.09;68.35;101082.06;7362270;19;20014;-61
2023/10/02 06:59:53;;;;;;;0.10;0.10;;;;;;;14.11;67.69;101080.25;7357742;19;20010;-60
2023/10/02 07:02:25;;;;;;;0.10;0.10;;;;;;;14.01;67.91;101053.41;7362840;19;20475;-60
2023/10/02 07:04:52;;;;;;;0.10;0.10;;;;;;;14.06;67.82;101058.53;7348342;19;20002;-60
2023/10/02 07:07:24;;;;;;;0.10;0.10;;;;;;;14.13;67.83;101073.16;7360609;19;20090;-59
2023/10/02 07:09:51;;;;;;;0.10;0.10;;;;;;;14.12;67.87;101071.44;7369402;19;20015;-60
2023/10/02 07:12:17;;;;;;;0.10;0.10;;;;;;;14.13;68.09;101081.03;7369468;19;20019;-60
2023/10/02 07:14:45;;;;;;;0.10;0.10;;;;;;;14.10;68.12;101073.28;7361222;19;20070;-60
2023/10/02 07:17:17;;;;;;;0.10;0.10;;;;;;;14.12;67.95;101087.22;7365032;19;21428;-59
2023/10/02 07:19:52;;;;;;;0.10;0.10;;;;;;;14.17;67.79;101087.06;7364837;19;20046;-60
2023/10/02 07:22:23;;;;;;;0.10;0.10;;;;;;;14.11;68.07;101067.13;7361692;19;20009;-60
2023/10/02 07:24:55;;;;;;;0.03;0.03;;;;;;;14.15;68.06;101076.63;7366339;19;20022;-60
2023/10/02 07:27:28;;;;;;;0.10;0.10;;;;;;;14.16;68.42;101077.47;7359780;19;20003;-61
2023/10/02 07:29:56;;;;;;;0.10;0.10;;;;;;;14.16;68.29;101083.59;7364291;19;20014;-61
2023/10/02 07:32:23;;;;;;;0.10;0.10;;;;;;;14.11;67.83;101080.25;7368088;19;20010;-60
2023/10/02 07:34:53;;;;;;;0.10;0.10;;;;;;;14.18;68.03;101089.63;7375077;19;20022;-60
2023/10/02 07:37:24;;;;;;;0.10;0.10;;;;;;;14.13;68.50;101078.41;7367199;19;20756;-61
2023/10/02 07:39:57;;;;;;;0.10;0.10;;;;;;;14.16;68.12;101067.81;7366660;19;20044;-60
2023/10/02 07:42:28;;;;;;;0.10;0.10;;;;;;;14.23;68.51;101079.84;7361571;19;20010;-60
2023/10/02 07:45:11;;;;;;;0.10;0.10;;;;;;;14.26;68.71;101071.88;7364715;19;20321;-61
2023/10/02 07:47:39;;;;;;;0.10;0.10;;;;;;;14.28;68.48;101070.06;7360749;19;20011;-59
2023/10/02 07:50:23;;;;;;;0.10;0.10;;;;;;;14.32;68.06;101089.22;7370069;19;20728;-61
2023/10/02 07:52:49;;;;;;;0.10;0.10;;;;;;;14.31;68.75;101077.00;7368098;19;20011;-60
2023/10/02 07:55:15;;;;;;;0.10;0.10;;;;;;;14.37;67.97;101081.19;7338578;19;20074;-60
2023/10/02 07:57:40;;;;;;;0.10;0.10;;;;;;;14.39;68.38;101079.34;7365168;19;20847;-60
2023/10/02 08:02:52;;;;;;;0.10;0.10;;;;;;;14.37;68.10;101062.78;7365070;19;20017;-60
2023/10/02 08:05:20;;;;;;;0.10;0.10;;;;;;;14.47;68.37;101072.09;7362470;19;20003;-59
2023/10/02 08:07:45;;;;;;;0.10;0.10;;;;;;;14.50;68.16;101066.78;7367269;19;20022;-60
2023/10/02 08:10:11;;;;;;;0.00;0.00;;;;;;;14.49;67.63;101071.16;7363072;19;20041;-61
2023/10/02 08:12:37;;;;;;;0.10;0.10;;;;;;;14.56;68.50;101071.81;7367665;19;20021;-60
2023/10/02 08:15:26;;;;;;;0.10;0.10;;;;;;;14.60;68.60;101065.56;7365911;19;20708;-59
2023/10/02 08:20:16;;;;;;;0.10;0.10;;;;;;;14.67;68.33;101067.06;7370903;19;20014;-61
2023/10/02 08:22:46;;;;;;;0.10;0.10;;;;;;;14.71;67.76;101075.72;7370249;19;20002;-61
2023/10/02 08:25:13;;;;;;;0.10;0.10;;;;;;;14.75;68.04;101066.78;7373145;19;20015;-60
2023/10/02 08:27:55;;;;;;;0.10;0.10;;;;;;;14.79;68.17;101064.00;7363273;19;20110;-60
2023/10/02 08:30:31;;;;;;;0.10;0.10;;;;;;;14.81;67.81;101074.50;7367864;19;20475;-61
2023/10/02 08:33:20;;;;;;;0.10;0.10;;;;;;;14.86;68.04;101069.06;7366445;19;20757;-60
2023/10/02 08:35:46;;;;;;;0.00;0.00;;;;;;;14.66;68.60;101036.44;7367750;19;20048;-60
2023/10/02 08:38:26;;;;;;;0.10;0.10;;;;;;;14.99;68.42;101070.34;7363840;19;20808;-61
2023/10/02 08:40:59;;;;;;;0.10;0.10;;;;;;;15.08;67.68;101070.03;7367603;19;20023;-60
2023/10/02 08:43:29;;;;;;;0.10;0.10;;;;;;;15.18;67.93;101070.56;7361633;19;20017;-60
2023/10/02 08:45:56;;;;;;;0.10;0.10;;;;;;;15.20;67.70;101074.84;7371296;19;20402;-61
2023/10/02 08:48:25;;;;;;;0.10;0.10;;;;;;;15.28;67.72;101072.81;7362177;19;20467;-60
2023/10/02 08:50:57;;;;;;;0.10;0.10;;;;;;;15.34;68.16;101076.13;7365425;19;20684;-60
2023/10/02 08:53:23;;;;;;;0.00;0.00;;;;;;;15.41;67.92;101080.25;7364101;19;20017;-61
2023/10/02 08:56:24;;;;;;;0.10;0.10;;;;;;;15.50;67.77;101074.63;7365779;19;20099;-60
2023/10/02 09:01:34;;;;;;;0.10;0.10;;;;;;;15.55;66.99;101075.31;7363881;19;20022;-60
2023/10/02 09:04:22;;;;;;;0.10;0.10;;;;;;;15.60;66.78;101073.38;7361730;19;20015;-61
2023/10/02 09:07:44;;;;;;;0.10;0.10;;;;;;;15.50;67.07;101067.59;7365369;19;20090;-60
2023/10/02 09:09:45;;;;;;;0.10;0.10;;;;;;;15.61;67.09;101075.09;7359585;19;20517;-59
2023/10/02 09:12:15;;;;;;;0.10;0.10;;;;;;;15.65;67.19;101091.69;7359745;19;20014;-60
2023/10/02 09:14:41;;;;;;;0.10;0.10;;;;;;;15.64;67.03;101090.81;7360259;19;20021;-60
2023/10/02 09:17:24;;;;;;;0.10;0.10;;;;;;;15.54;66.72;101065.72;7357406;19;20361;-60
2023/10/02 09:19:58;;;;;;;0.00;0.00;;;;;;;15.70;66.67;101090.59;7369902;19;20010;-61
2023/10/02 09:22:27;;;;;;;0.10;0.10;;;;;;;15.70;66.74;101082.69;7366516;19;20010;-60
2023/10/02 09:25:26;;;;;;;0.10;0.10;;;;;;;15.76;66.71;101087.75;7361792;19;20428;-60
2023/10/02 09:28:26;;;;;;;0.10;0.10;;;;;;;15.78;67.04;101088.53;7359958;19;20010;-61
2023/10/02 09:30:45;;;;;;;0.10;0.10;;;;;;;15.81;67.59;101082.28;7359247;19;20010;-60
2023/10/02 09:33:22;;;;;;;0.10;0.10;;;;;;;15.81;66.83;101083.16;7366751;19;20590;-60
2023/10/02 09:35:50;;;;;;;0.00;0.00;;;;;;;15.94;67.37;101101.09;7367108;19;20028;-60
2023/10/02 09:38:17;;;;;;;0.10;0.10;;;;;;;15.99;67.03;101102.66;7363243;19;20078;-61
2023/10/02 09:41:11;;;;;;;0.08;0.08;;;;;;;16.05;67.61;101101.53;7365225;19;20011;-61
2023/10/02 09:43:37;;;;;;;0.10;0.10;;;;;;;16.13;66.93;101104.75;7360089;19;20023;-61
2023/10/02 09:46:06;;;;;;;0.10;0.10;;;;;;;16.23;67.08;101106.09;7363579;19;20015;-60
2023/10/02 09:48:52;;;;;;;0.10;0.10;;;;;;;16.26;66.51;101105.97;7365369;19;20019;-60
2023/10/02 09:51:30;;;;;;;0.08;0.08;;;;;;;16.38;66.90;101111.69;7369437;19;20011;-61
2023/10/02 09:54:28;;;;;;;0.10;0.10;;;;;;;16.43;65.98;101107.94;7362955;19;20011;-60
2023/10/02 09:57:16;;;;;;;0.10;0.10;;;;;;;16.50;66.35;101119.09;7368628;19;20007;-60
2023/10/02 09:59:47;;;;;;;0.10;0.10;;;;;;;16.50;65.99;101113.81;7366975;19;20011;-61
2023/10/02 10:13:26;;;;;;;0.10;0.10;;;;;;;16.67;65.74;101058.59;7367370;19;20042;-61
2023/10/02 10:16:30;;;;;;;0.10;0.10;;;;;;;16.71;65.71;101064.59;7371853;19;20007;-61
2023/10/02 10:21:56;;;;;;;;;;;;;;;16.75;66.11;101071.50;7358486;19;19991;-60
2023/10/02 10:24:58;;;;;;;0.10;0.10;;;;;;;16.76;65.65;101068.78;7361229;19;20810;-61
2023/10/02 10:27:43;;;;;;;0.10;0.10;;;;;;;16.77;65.38;101064.38;7363638;19;20359;-61
2023/10/02 10:30:39;;;;;;;0.10;0.10;;;;;;;16.79;65.56;101071.31;7366674;19;20982;-61
2023/10/02 10:35:49;;;;;;;0.10;0.10;;;;;;;16.76;64.59;101050.31;7366142;19;19999;-60
2023/10/02 10:41:26;;;;;;;0.10;0.10;;;;;;;16.80;65.11;101044.00;7364381;19;20001;-61
2023/10/02 10:43:55;;;;;;;0.10;0.10;;;;;;;16.75;65.15;101039.84;7367381;19;20011;-60
2023/10/02 10:46:29;;;;;;;0.10;0.10;;;;;;;16.88;64.72;101041.06;7364644;19;20011;-60
2023/10/02 10:48:59;;;;;;;0.10;0.10;;;;;;;16.88;64.70;101034.88;7365028;19;20018;-60
2023/10/02 10:51:33;;;;;;;0.10;0.10;;;;;;;16.89;64.59;101026.06;7363899;19;20017;-61
2023/10/02 10:54:30;;;;;;;0.10;0.10;;;;;;;16.96;65.52;101017.81;7358932;19;20026;-60
2023/10/02 10:57:19;;;;;;;0.10;0.10;;;;;;;16.96;65.34;101015.16;7360902;19;20729;-61
2023/10/02 10:59:45;;;;;;;0.10;0.10;;;;;;;16.97;65.03;101013.38;7365633;19;20697;-60
2023/10/02 11:02:16;;;;;;;0.10;0.10;;;;;;;16.96;64.21;101015.16;7358080;19;20014;-59
2023/10/02 11:04:49;;;;;;;0.10;0.10;;;;;;;17.06;65.01;101018.25;7365616;19;20031;-60
2023/10/02 11:07:22;;;;;;;0.10;0.10;;;;;;;17.03;64.24;101014.00;7370458;19;20007;-61
2023/10/02 11:10:14;;;;;;;0.20;0.20;;;;;;;17.08;64.82;101019.03;7369458;19;20018;-61
2023/10/02 11:12:54;;;;;;;0.10;0.10;;;;;;;17.07;64.57;101019.97;7371806;19;20018;-60
2023/10/02 11:18:20;;;;;;;0.10;0.10;;;;;;;17.13;64.52;101017.06;7370586;19;20027;-60
2023/10/02 11:20:49;;;;;;;0.15;0.15;;;;;;;17.04;63.77;101014.84;7371643;19;20052;-61
2023/10/02 11:23:29;;;;;;;0.10;0.10;;;;;;;17.11;64.16;101011.00;7369526;19;20475;-60
2023/10/02 11:25:56;;;;;;;0.10;0.10;;;;;;;17.06;63.61;101013.00;7370718;19;20015;-60
2023/10/02 11:28:34;;;;;;;0.10;0.10;;;;;;;17.08;64.44;101006.72;7371767;19;20335;-60
2023/10/02 11:31:29;;;;;;;0.10;0.10;;;;;;;17.08;64.52;101011.13;7370764;19;20022;-60
2023/10/02 11:34:12;;;;;;;0.10;0.10;;;;;;;17.07;64.59;101004.13;7369447;19;20594;-60
2023/10/02 11:36:50;;;;;;;0.10;0.10;;;;;;;17.05;64.41;101001.56;7370510;19;20020;-60
2023/10/02 11:39:19;;;;;;;0.10;0.10;;;;;;;17.02;64.09;100996.44;7372204;19;20241;-60
2023/10/02 11:41:46;;;;;;;0.10;0.10;;;;;;;16.98;63.79;100988.72;7355937;19;20570;-60
2023/10/02 11:44:12;;;;;;;0.10;0.10;;;;;;;17.05;64.11;101003.38;7370610;19;20017;-61
2023/10/02 11:46:41;;;;;;;0.10;0.10;;;;;;;17.07;64.09;101014.69;7365837;19;20607;-60
2023/10/02 11:49:13;;;;;;;0.10;0.10;;;;;;;17.08;64.05;101011.13;7368381;19;20499;-61
2023/10/02 11:51:38;;;;;;;0.10;0.10;;;;;;;17.11;64.16;101016.28;7358587;19;20014;-60
2023/10/02 11:54:09;;;;;;;0.10;0.10;;;;;;;17.13;64.51;101014.41;7362261;19;20018;-61
2023/10/02 11:56:35;;;;;;;0.10;0.10;;;;;;;17.17;64.59;101021.28;7373638;19;20018;-61
2023/10/02 11:59:02;;;;;;;0.10;0.10;;;;;;;17.22;63.37;101011.38;7372410;19;20011;-61
2023/10/02 12:01:28;;;;;;;0.10;0.10;;;;;;;17.12;64.40;100986.31;7361788;19;20015;-60
2023/10/02 12:03:56;;;;;;;0.10;0.10;;;;;;;17.24;64.23;101012.16;7369711;19;20018;-61
2023/10/02 12:06:26;;;;;;;0.13;0.13;;;;;;;17.34;63.63;101013.47;7369567;19;20051;-61
2023/10/02 12:08:54;;;;;;;0.10;0.10;;;;;;;17.41;63.59;101014.03;7371036;19;20018;-60
2023/10/02 12:11:20;;;;;;;0.10;0.10;;;;;;;17.44;63.82;101013.03;7368329;19;20010;-61
2023/10/02 12:13:46;;;;;;;0.10;0.10;;;;;;;17.47;63.95;101000.53;7365216;19;20926;-60
2023/10/02 12:16:12;;;;;;;0.10;0.10;;;;;;;17.51;62.91;101003.91;7364812;19;20538;-61
2023/10/02 12:18:38;;;;;;;0.10;0.10;;;;;;;17.55;62.77;100994.91;7368159;19;20016;-60
2023/10/02 12:21:11;;;;;;;0.10;0.10;;;;;;;17.59;62.85;101002.63;7367008;19;20042;-61
2023/10/02 12:23:40;;;;;;;0.10;0.10;;;;;;;17.61;62.54;100995.47;7367677;19;20017;-61
2023/10/02 12:26:12;;;;;;;0.17;0.17;;;;;;;17.63;62.53;100992.75;7369093;19;20015;-61
2023/10/02 12:28:38;;;;;;;0.00;0.00;;;;;;;17.58;61.95;100989.47;7369513;19;20021;-60
2023/10/02 12:31:13;;;;;;;0.10;0.10;;;;;;;17.69;62.67;100989.84;7365466;19;19999;-60
2023/10/02 12:33:42;;;;;;;0.10;0.10;;;;;;;17.65;62.29;100980.34;7367734;19;20010;-60
2023/10/02 12:36:12;;;;;;;0.15;0.15;;;;;;;17.65;62.24;100975.06;7362924;19;20513;-60
2023/10/02 12:38:38;;;;;;;0.10;0.10;;;;;;;17.68;62.50;100974.03;7367955;19;20535;-61
2023/10/02 12:41:14;;;;;;;0.10;0.10;;;;;;;17.75;62.22;100973.72;7368684;19;20011;-61
2023/10/02 12:43:42;;;;;;;0.10;0.10;;;;;;;17.75;62.38;100962.31;7366469;19;20010;-60